Time;durP1;ratioP1;P1;durP2;ratioP2;P2;SDS_P1;SDS_P2;PMS_P1;PMS_P2;Temp;Humidity;BMP_temperature;BMP_pressure;BME280_temperature;BME280_humidity;BME280_pressure;Samples;Min_cycle;Max_cycle;Signal;HPM_P1;HPM_P2
2022/01/06 00:01:38;;;;;;;8.07;2.20;;;3.20;71.80;;;;;;5002847;28;20041;-69
2022/01/06 00:04:04;;;;;;;5.22;1.80;;;3.20;71.90;;;;;;5005708;28;20046;-69
2022/01/06 00:06:32;;;;;;;10.00;2.40;;;3.20;73.10;;;;;;5008195;28;20033;-68
2022/01/06 00:08:59;;;;;;;6.10;2.30;;;3.20;72.30;;;;;;5002458;28;20038;-69
2022/01/06 00:11:25;;;;;;;8.20;2.25;;;3.10;72.20;;;;;;5005167;28;20497;-68
2022/01/06 00:24:49;;;;;;;9.10;2.00;;;3.10;72.80;;;;;;5003677;28;20049;-69
2022/01/06 00:27:15;;;;;;;7.35;1.90;;;3.10;72.90;;;;;;5002428;28;20038;-69
2022/01/06 00:29:41;;;;;;;7.68;2.03;;;3.00;72.90;;;;;;5004193;28;20080;-69
2022/01/06 00:32:08;;;;;;;6.57;1.80;;;3.00;73.00;;;;;;5003654;28;20045;-68
2022/01/06 00:34:33;;;;;;;13.55;2.58;;;3.00;73.10;;;;;;5003453;28;20026;-69
2022/01/06 00:37:00;;;;;;;5.35;1.50;;;3.00;73.10;;;;;;5005351;28;20041;-69
2022/01/06 00:39:28;;;;;;;7.20;2.22;;;3.00;73.30;;;;;;5002011;28;20080;-69
2022/01/06 00:41:59;;;;;;;6.13;1.98;;;3.00;73.40;;;;;;5000200;28;20035;-68
2022/01/06 00:44:26;;;;;;;8.98;2.10;;;3.00;73.60;;;;;;4993417;28;20042;-69
2022/01/06 00:46:52;;;;;;;7.20;1.98;;;3.00;73.60;;;;;;4994570;28;20042;-68
2022/01/06 00:49:18;;;;;;;8.65;2.10;;;3.00;73.70;;;;;;4992794;28;20093;-68
2022/01/06 00:51:44;;;;;;;5.60;1.80;;;3.00;73.80;;;;;;4992871;28;20046;-68
2022/01/06 00:54:10;;;;;;;6.18;1.77;;;3.00;73.70;;;;;;4995906;28;20022;-68
2022/01/06 00:56:36;;;;;;;7.78;1.98;;;3.10;73.80;;;;;;4993860;28;20062;-68
2022/01/06 00:59:02;;;;;;;5.70;2.03;;;3.00;73.80;;;;;;4992588;28;20113;-68
2022/01/06 01:01:28;;;;;;;5.60;1.88;;;3.00;73.80;;;;;;4996757;28;20037;-68
2022/01/06 01:03:54;;;;;;;7.30;2.08;;;3.00;74.00;;;;;;4992170;28;20416;-68
2022/01/06 01:06:19;;;;;;;5.22;2.10;;;3.10;74.10;;;;;;4998750;28;20033;-68
2022/01/06 01:08:45;;;;;;;5.57;1.73;;;3.10;74.00;;;;;;5003038;28;20112;-66
2022/01/06 01:11:11;;;;;;;7.38;2.33;;;3.10;74.00;;;;;;4998327;28;20046;-68
2022/01/06 01:13:53;;;;;;;7.57;2.05;;;3.10;74.10;;;;;;4996521;28;20914;-69
2022/01/06 01:16:23;;;;;;;6.93;2.05;;;3.10;74.10;;;;;;5001976;28;20596;-69
2022/01/06 01:18:49;;;;;;;8.45;2.00;;;3.10;74.10;;;;;;5003639;28;20498;-69
2022/01/06 01:21:17;;;;;;;6.75;2.28;;;3.10;74.20;;;;;;5000714;28;20117;-68
2022/01/06 01:23:42;;;;;;;6.20;2.13;;;3.10;74.30;;;;;;5003644;28;20056;-68
2022/01/06 01:26:08;;;;;;;7.38;2.20;;;3.10;74.30;;;;;;5003944;28;20436;-69
2022/01/06 01:28:43;;;;;;;7.75;2.20;;;3.10;74.40;;;;;;5005826;28;20073;-69
2022/01/06 01:33:38;;;;;;;6.00;2.10;;;3.10;74.80;;;;;;5007887;28;19917;-69
2022/01/06 01:36:04;;;;;;;8.20;2.30;;;3.00;74.00;;;;;;5006845;28;20038;-68
2022/01/06 01:38:30;;;;;;;5.35;1.90;;;3.00;74.30;;;;;;5006927;28;20459;-69
2022/01/06 01:40:56;;;;;;;10.45;2.67;;;3.00;74.40;;;;;;5004391;28;20174;-68
2022/01/06 01:43:22;;;;;;;9.75;2.28;;;3.00;74.50;;;;;;5004225;28;20121;-69
2022/01/06 01:45:54;;;;;;;10.30;2.60;;;3.00;74.70;;;;;;4996712;28;20895;-69
2022/01/06 01:48:26;;;;;;;5.80;2.28;;;3.00;74.90;;;;;;4994990;28;20045;-68
2022/01/06 01:50:52;;;;;;;8.60;2.65;;;2.90;74.80;;;;;;4995538;28;20669;-69
2022/01/06 01:53:18;;;;;;;7.30;2.42;;;3.00;75.00;;;;;;4999475;28;20066;-69
2022/01/06 01:55:44;;;;;;;4.47;2.33;;;3.00;75.10;;;;;;5001918;28;20026;-69
2022/01/06 01:58:10;;;;;;;8.57;1.80;;;3.00;75.10;;;;;;5000938;28;20049;-68
2022/01/06 02:00:36;;;;;;;9.52;2.60;;;3.00;75.10;;;;;;5001610;28;20038;-69
2022/01/06 02:03:02;;;;;;;5.35;2.25;;;3.00;75.20;;;;;;4998962;28;20034;-69
2022/01/06 02:05:28;;;;;;;8.00;2.20;;;2.90;76.20;;;;;;4999967;28;20034;-69
2022/01/06 02:07:56;;;;;;;8.60;2.30;;;3.00;75.40;;;;;;5000246;28;20092;-69
2022/01/06 02:10:22;;;;;;;5.72;2.10;;;3.00;75.40;;;;;;5003458;28;20041;-69
2022/01/06 02:12:50;;;;;;;12.52;2.42;;;3.00;75.40;;;;;;4997789;28;20053;-68
2022/01/06 02:15:16;;;;;;;4.55;2.13;;;3.00;75.40;;;;;;4996693;28;20045;-69
2022/01/06 02:17:44;;;;;;;8.13;1.92;;;3.00;75.30;;;;;;4999640;28;20030;-69
2022/01/06 02:20:11;;;;;;;8.15;2.20;;;3.00;75.40;;;;;;4999420;28;20080;-69
2022/01/06 02:22:38;;;;;;;7.90;2.00;;;3.00;75.40;;;;;;4999326;28;20038;-69
2022/01/06 02:25:09;;;;;;;5.65;1.95;;;3.00;75.30;;;;;;4998432;28;20034;-69
2022/01/06 02:27:35;;;;;;;6.07;2.33;;;3.00;75.50;;;;;;5003680;28;20045;-69
2022/01/06 02:30:01;;;;;;;9.98;2.25;;;3.00;75.50;;;;;;5003401;28;20401;-69
2022/01/06 02:32:26;;;;;;;6.28;1.90;;;3.00;75.60;;;;;;4997798;28;20096;-69
2022/01/06 02:34:52;;;;;;;6.22;2.20;;;3.00;75.50;;;;;;5000246;28;20066;-68
2022/01/06 02:37:17;;;;;;;8.75;2.47;;;3.00;75.60;;;;;;4999363;28;20029;-68
2022/01/06 02:39:44;;;;;;;6.82;2.30;;;3.00;75.60;;;;;;4995118;28;20444;-69
2022/01/06 02:42:10;;;;;;;6.38;2.00;;;3.00;75.70;;;;;;5000661;28;20073;-69
2022/01/06 02:44:39;;;;;;;5.00;1.92;;;3.00;75.70;;;;;;5002206;28;20120;-69
2022/01/06 02:47:08;;;;;;;8.05;2.78;;;3.00;75.90;;;;;;4996199;28;20604;-68
2022/01/06 02:49:34;;;;;;;5.80;2.20;;;3.00;75.90;;;;;;4999516;28;20035;-69
2022/01/06 02:52:00;;;;;;;8.63;2.40;;;3.00;76.60;;;;;;4998216;28;20481;-69
2022/01/06 02:54:27;;;;;;;4.30;2.10;;;3.00;75.90;;;;;;5000001;28;20480;-69
2022/01/06 02:56:52;;;;;;;7.57;2.33;;;3.00;75.70;;;;;;4998847;28;20030;-68
2022/01/06 02:59:19;;;;;;;8.40;2.80;;;3.00;75.70;;;;;;5001206;28;20034;-68
2022/01/06 03:01:45;;;;;;;5.40;2.20;;;3.00;75.80;;;;;;5001352;28;20536;-69
2022/01/06 03:04:12;;;;;;;5.72;2.20;;;3.00;75.90;;;;;;5000646;28;20049;-68
2022/01/06 03:06:39;;;;;;;7.38;2.22;;;3.00;75.90;;;;;;4998105;28;20793;-69
2022/01/06 03:09:05;;;;;;;5.97;2.05;;;3.00;75.90;;;;;;5002534;28;20491;-68
2022/01/06 03:11:32;;;;;;;7.57;2.50;;;3.00;76.00;;;;;;4999581;28;20111;-68
2022/01/06 03:13:59;;;;;;;6.90;2.30;;;3.00;76.00;;;;;;4999874;28;20034;-68
2022/01/06 03:16:25;;;;;;;9.13;2.38;;;3.10;76.00;;;;;;4995264;28;20497;-69
2022/01/06 03:18:50;;;;;;;7.30;2.40;;;3.10;75.90;;;;;;5000827;28;20034;-68
2022/01/06 03:21:16;;;;;;;9.30;2.08;;;3.10;76.40;;;;;;4997248;28;20034;-68
2022/01/06 03:23:42;;;;;;;7.45;2.28;;;3.10;76.00;;;;;;4997653;28;20425;-68
2022/01/06 03:26:07;;;;;;;9.05;2.50;;;3.10;76.20;;;;;;4999091;28;20591;-69
2022/01/06 03:28:33;;;;;;;6.55;2.40;;;3.10;76.20;;;;;;5001050;28;20118;-68
2022/01/06 03:30:59;;;;;;;5.30;2.15;;;3.10;76.00;;;;;;5002913;28;20176;-68
2022/01/06 03:33:25;;;;;;;5.30;2.10;;;3.10;76.00;;;;;;4997098;28;20600;-67
2022/01/06 03:35:51;;;;;;;6.68;2.40;;;3.10;76.00;;;;;;4997871;28;20121;-68
2022/01/06 03:38:16;;;;;;;6.00;2.50;;;3.10;76.00;;;;;;4998904;28;20582;-68
2022/01/06 03:40:42;;;;;;;8.80;2.50;;;3.10;76.00;;;;;;4997200;28;20049;-68
2022/01/06 03:43:08;;;;;;;7.20;2.42;;;3.10;76.20;;;;;;5001305;28;20034;-68
2022/01/06 03:45:34;;;;;;;5.25;2.05;;;3.10;76.00;;;;;;4995777;28;20037;-69
2022/01/06 03:48:00;;;;;;;5.40;2.13;;;3.10;76.00;;;;;;4998772;28;20473;-68
2022/01/06 03:50:26;;;;;;;6.93;2.35;;;3.10;76.10;;;;;;4999562;28;20046;-69
2022/01/06 03:52:52;;;;;;;4.30;2.40;;;3.10;76.00;;;;;;4997278;28;20037;-69
2022/01/06 03:55:19;;;;;;;6.47;2.50;;;3.10;76.00;;;;;;4996726;28;20095;-69
2022/01/06 03:57:46;;;;;;;7.60;2.40;;;3.10;76.00;;;;;;5002918;28;20674;-69
2022/01/06 04:00:15;;;;;;;7.10;2.20;;;3.10;76.00;;;;;;5000289;28;20356;-68
2022/01/06 04:02:42;;;;;;;6.65;2.38;;;3.10;76.00;;;;;;4997035;28;20026;-69
2022/01/06 04:05:09;;;;;;;6.28;2.50;;;3.10;76.10;;;;;;4996236;28;20412;-69
2022/01/06 04:07:35;;;;;;;9.23;2.70;;;3.10;76.10;;;;;;5004947;28;20061;-69
2022/01/06 04:10:01;;;;;;;7.40;2.45;;;3.10;76.20;;;;;;4997967;28;20053;-68
2022/01/06 04:12:26;;;;;;;6.68;2.78;;;3.00;76.20;;;;;;4992516;28;20042;-69
2022/01/06 04:14:52;;;;;;;3.97;2.65;;;3.00;76.30;;;;;;5001480;28;20040;-68
2022/01/06 04:17:17;;;;;;;5.13;2.35;;;3.00;76.50;;;;;;5000996;28;20033;-69
2022/01/06 04:19:43;;;;;;;7.55;2.72;;;3.00;76.60;;;;;;4996380;28;20058;-68
2022/01/06 04:22:09;;;;;;;7.82;2.53;;;3.10;76.70;;;;;;4998900;28;20037;-68
2022/01/06 04:24:34;;;;;;;6.32;2.88;;;3.10;76.80;;;;;;5000485;28;20542;-70
2022/01/06 04:27:01;;;;;;;5.43;2.67;;;3.10;76.70;;;;;;5001104;28;20067;-69
2022/01/06 04:29:26;;;;;;;6.40;2.92;;;3.10;76.80;;;;;;4998574;28;20053;-68
2022/01/06 04:31:53;;;;;;;6.25;2.65;;;3.10;76.90;;;;;;4998573;28;20034;-68
2022/01/06 04:34:18;;;;;;;12.90;3.25;;;3.10;76.90;;;;;;4997830;28;20030;-68
2022/01/06 04:36:49;;;;;;;5.78;2.58;;;3.10;77.00;;;;;;4993757;28;20103;-68
2022/01/06 04:39:15;;;;;;;5.93;2.75;;;3.10;77.10;;;;;;4994139;28;20148;-68
2022/01/06 04:41:41;;;;;;;7.80;2.60;;;3.10;77.20;;;;;;4997108;28;20605;-68
2022/01/06 04:44:06;;;;;;;4.80;2.78;;;3.10;78.00;;;;;;4999150;28;20493;-69
2022/01/06 04:46:32;;;;;;;6.22;2.55;;;3.00;77.30;;;;;;5001416;28;20033;-69
2022/01/06 04:48:58;;;;;;;5.38;2.65;;;3.00;77.40;;;;;;4999731;28;20035;-69
2022/01/06 04:51:23;;;;;;;4.90;2.40;;;3.00;77.40;;;;;;5001307;28;20030;-68
2022/01/06 04:53:49;;;;;;;5.55;2.63;;;3.00;77.30;;;;;;5002492;28;20050;-68
2022/01/06 04:56:15;;;;;;;6.15;2.80;;;3.00;77.40;;;;;;5000881;28;20038;-68
2022/01/06 04:58:40;;;;;;;5.57;2.85;;;3.00;77.40;;;;;;5004285;28;20099;-68
2022/01/06 05:01:06;;;;;;;59.97;24.27;;;3.00;77.40;;;;;;5001947;28;20034;-69
2022/01/06 05:03:31;;;;;;;9.82;5.70;;;3.00;77.40;;;;;;5000355;28;20048;-68
2022/01/06 05:05:57;;;;;;;7.85;5.05;;;3.00;78.10;;;;;;5003374;28;20042;-66
2022/01/06 05:08:23;;;;;;;23.85;9.50;;;3.00;77.60;;;;;;5002434;28;20038;-69
2022/01/06 05:10:48;;;;;;;19.55;8.55;;;2.90;77.70;;;;;;5000936;28;20041;-69
2022/01/06 05:13:14;;;;;;;16.40;8.02;;;2.90;77.90;;;;;;5000910;28;20046;-69
2022/01/06 05:15:39;;;;;;;20.35;8.45;;;2.90;77.90;;;;;;5003979;28;20755;-69
2022/01/06 05:18:05;;;;;;;6.97;3.80;;;2.90;77.90;;;;;;5003851;28;20104;-68
2022/01/06 05:20:31;;;;;;;4.63;3.47;;;2.90;78.00;;;;;;5000416;28;20034;-69
2022/01/06 05:22:57;;;;;;;6.65;2.85;;;2.90;78.00;;;;;;5001524;28;20509;-69
2022/01/06 05:25:28;;;;;;;6.18;3.10;;;2.90;78.00;;;;;;5004238;28;20033;-68
2022/01/06 05:27:54;;;;;;;8.75;3.40;;;2.90;78.00;;;;;;5006796;28;20582;-68
2022/01/06 05:30:22;;;;;;;6.97;3.38;;;2.90;78.10;;;;;;5001481;28;20078;-69
2022/01/06 05:32:48;;;;;;;5.50;3.20;;;2.90;78.10;;;;;;5000685;28;20039;-68
2022/01/06 05:35:14;;;;;;;8.45;3.30;;;2.80;78.20;;;;;;5001972;28;20048;-69
2022/01/06 05:37:40;;;;;;;5.18;3.10;;;2.80;78.30;;;;;;5003728;28;20026;-69
2022/01/06 05:40:06;;;;;;;6.05;2.95;;;2.80;78.30;;;;;;4997984;28;20844;-68
2022/01/06 05:42:32;;;;;;;6.57;3.35;;;2.80;78.50;;;;;;4995921;28;20034;-68
2022/01/06 05:44:58;;;;;;;9.40;3.22;;;2.80;78.70;;;;;;4998915;28;20042;-68
2022/01/06 05:47:23;;;;;;;6.90;3.35;;;2.80;78.70;;;;;;5005157;28;20030;-68
2022/01/06 05:49:49;;;;;;;4.78;3.17;;;2.80;78.60;;;;;;5000513;28;20044;-69
2022/01/06 05:52:14;;;;;;;6.55;2.92;;;2.80;78.60;;;;;;5001211;28;20145;-69
2022/01/06 05:54:40;;;;;;;5.38;3.33;;;2.80;78.60;;;;;;5001438;28;20030;-68
2022/01/06 05:57:08;;;;;;;15.85;7.88;;;2.80;78.60;;;;;;5004994;28;20044;-68
2022/01/06 05:59:33;;;;;;;7.70;4.60;;;2.90;78.60;;;;;;5001683;28;20062;-68
2022/01/06 06:02:00;;;;;;;8.13;3.85;;;2.90;78.50;;;;;;5003450;28;20640;-68
2022/01/06 06:04:25;;;;;;;6.25;3.03;;;2.90;78.50;;;;;;5002046;28;20042;-69
2022/01/06 06:06:51;;;;;;;4.55;2.92;;;2.90;78.50;;;;;;4997228;28;20807;-68
2022/01/06 06:09:17;;;;;;;6.53;4.18;;;2.90;78.50;;;;;;5004167;28;20375;-69
2022/01/06 06:11:42;;;;;;;4.03;2.78;;;2.90;78.50;;;;;;4993127;28;20041;-68
2022/01/06 06:14:08;;;;;;;5.38;3.20;;;2.90;78.50;;;;;;5005034;28;20038;-68
2022/01/06 06:16:34;;;;;;;4.47;2.80;;;2.90;78.50;;;;;;4997290;28;20450;-67
2022/01/06 06:18:59;;;;;;;5.38;2.50;;;2.90;78.50;;;;;;5004030;28;20026;-69
2022/01/06 06:21:25;;;;;;;5.20;2.80;;;2.90;78.50;;;;;;5004599;28;20051;-68
2022/01/06 06:23:51;;;;;;;7.18;3.08;;;2.80;78.50;;;;;;5000238;28;20038;-68
2022/01/06 06:26:17;;;;;;;6.18;3.47;;;2.80;78.50;;;;;;5005240;28;20509;-68
2022/01/06 06:28:43;;;;;;;9.00;3.20;;;2.90;78.80;;;;;;5005390;28;20026;-68
2022/01/06 06:31:08;;;;;;;6.53;3.17;;;2.80;78.70;;;;;;5003750;28;20595;-68
2022/01/06 06:33:34;;;;;;;3.85;2.88;;;2.90;78.80;;;;;;4997902;28;20661;-68
2022/01/06 06:35:59;;;;;;;9.40;3.60;;;2.90;78.80;;;;;;5002412;28;20125;-69
2022/01/06 06:38:25;;;;;;;7.15;3.25;;;2.90;78.80;;;;;;5005200;28;20042;-70
2022/01/06 06:40:51;;;;;;;6.20;4.00;;;2.90;78.80;;;;;;5006002;28;20034;-68
2022/01/06 06:43:17;;;;;;;6.32;3.80;;;2.90;78.80;;;;;;5006192;28;20099;-68
2022/01/06 06:45:43;;;;;;;8.30;4.82;;;2.80;78.80;;;;;;5006224;28;20505;-69
2022/01/06 06:48:09;;;;;;;7.63;3.92;;;2.90;78.80;;;;;;5004421;28;20037;-68
2022/01/06 06:50:35;;;;;;;6.35;3.67;;;2.90;78.80;;;;;;5007291;28;20087;-69
2022/01/06 06:53:02;;;;;;;4.10;2.97;;;2.90;78.80;;;;;;5006895;28;20054;-69
2022/01/06 06:55:28;;;;;;;9.05;4.68;;;2.90;78.80;;;;;;5006733;28;20057;-69
2022/01/06 06:57:54;;;;;;;7.60;4.28;;;2.90;78.70;;;;;;5006617;28;20034;-68
2022/01/06 07:00:20;;;;;;;11.73;5.38;;;2.90;78.80;;;;;;5005894;28;20057;-68
2022/01/06 07:02:46;;;;;;;10.40;6.45;;;2.90;78.80;;;;;;5002789;28;20046;-69
2022/01/06 07:05:12;;;;;;;8.93;5.82;;;2.90;78.80;;;;;;5005525;28;20037;-69
2022/01/06 07:07:38;;;;;;;8.35;5.28;;;2.90;78.80;;;;;;5005810;28;20030;-69
2022/01/06 07:10:05;;;;;;;6.55;3.60;;;2.90;78.80;;;;;;5005117;28;20073;-68
2022/01/06 07:12:31;;;;;;;5.75;3.25;;;2.90;78.80;;;;;;5001523;28;20125;-69
2022/01/06 07:14:57;;;;;;;8.70;5.78;;;2.90;78.80;;;;;;5004415;28;20133;-68
2022/01/06 07:17:23;;;;;;;8.48;4.90;;;2.90;78.80;;;;;;4999416;28;20116;-68
2022/01/06 07:19:49;;;;;;;9.13;4.35;;;2.90;78.70;;;;;;4999087;28;20579;-68
2022/01/06 07:22:14;;;;;;;5.43;3.47;;;3.00;78.90;;;;;;5000773;28;20048;-68
2022/01/06 07:24:40;;;;;;;9.55;5.10;;;2.90;78.80;;;;;;4993237;28;20034;-68
2022/01/06 07:27:06;;;;;;;12.80;6.90;;;3.00;79.00;;;;;;4991694;28;20053;-68
2022/01/06 07:29:32;;;;;;;12.60;8.82;;;3.00;79.00;;;;;;4992361;28;20038;-70
2022/01/06 07:31:57;;;;;;;12.23;9.23;;;3.00;79.10;;;;;;4998524;28;20067;-66
2022/01/06 07:34:23;;;;;;;7.25;5.43;;;3.00;79.10;;;;;;4999967;28;20117;-68
2022/01/06 07:36:48;;;;;;;8.85;5.63;;;3.00;79.10;;;;;;5001620;28;20639;-68
2022/01/06 07:39:14;;;;;;;8.35;4.40;;;3.00;79.00;;;;;;5000336;28;20041;-68
2022/01/06 07:41:40;;;;;;;8.80;4.95;;;3.00;79.00;;;;;;4998876;28;20166;-66
2022/01/06 07:44:07;;;;;;;8.63;4.45;;;3.00;78.90;;;;;;4995793;28;20045;-68
2022/01/06 07:46:34;;;;;;;7.78;4.70;;;3.00;78.90;;;;;;5017946;28;20033;-68
2022/01/06 07:49:00;;;;;;;9.73;5.50;;;3.00;79.00;;;;;;4999956;28;20121;-67
2022/01/06 07:51:28;;;;;;;8.05;4.57;;;3.00;79.10;;;;;;4997317;28;21475;-68
2022/01/06 07:53:55;;;;;;;11.68;4.72;;;3.00;79.00;;;;;;4983576;28;20156;-66
2022/01/06 07:56:21;;;;;;;10.15;3.88;;;3.00;79.10;;;;;;4988468;28;22081;-68
2022/01/06 07:58:47;;;;;;;8.10;4.50;;;3.10;79.10;;;;;;4989023;28;20038;-68
2022/01/06 08:01:13;;;;;;;7.35;5.18;;;3.10;79.20;;;;;;4996023;28;20068;-68
2022/01/06 08:03:39;;;;;;;11.20;5.40;;;3.10;79.30;;;;;;4995092;28;20382;-67
2022/01/06 08:06:05;;;;;;;8.27;5.05;;;3.10;79.30;;;;;;4989838;28;20132;-68
2022/01/06 08:08:30;;;;;;;8.02;4.10;;;3.10;79.20;;;;;;4986912;28;20030;-67
2022/01/06 08:10:56;;;;;;;7.30;4.00;;;3.10;79.20;;;;;;4988243;28;20070;-68
2022/01/06 08:13:22;;;;;;;14.70;7.38;;;3.20;79.20;;;;;;4996626;28;20125;-68
2022/01/06 08:15:47;;;;;;;7.40;4.53;;;3.20;79.10;;;;;;4988590;28;20391;-68
2022/01/06 08:18:14;;;;;;;9.20;4.65;;;3.20;79.00;;;;;;4989314;28;20578;-68
2022/01/06 08:20:39;;;;;;;8.43;4.65;;;3.20;78.80;;;;;;4987676;28;20045;-68
2022/01/06 08:23:06;;;;;;;7.03;3.90;;;3.20;78.80;;;;;;4993548;28;20041;-67
2022/01/06 08:25:32;;;;;;;8.13;4.10;;;3.20;78.90;;;;;;4991791;28;20120;-68
2022/01/06 08:27:58;;;;;;;7.13;5.00;;;3.20;79.00;;;;;;4990638;28;20421;-69
2022/01/06 08:30:24;;;;;;;7.88;4.45;;;3.20;79.00;;;;;;4988312;28;20057;-68
2022/01/06 08:32:49;;;;;;;5.57;3.60;;;3.30;79.10;;;;;;4991403;28;20144;-69
2022/01/06 08:35:15;;;;;;;5.35;3.45;;;3.30;79.10;;;;;;4990362;28;20037;-69
2022/01/06 08:37:42;;;;;;;6.97;3.80;;;3.30;79.20;;;;;;4991519;28;20117;-69
2022/01/06 08:40:08;;;;;;;8.82;4.50;;;3.30;79.00;;;;;;4992139;28;20536;-67
2022/01/06 08:42:34;;;;;;;7.43;4.18;;;3.30;79.00;;;;;;4995161;28;20042;-68
2022/01/06 08:44:59;;;;;;;8.10;4.38;;;3.30;79.00;;;;;;4995577;28;20042;-69
2022/01/06 08:47:25;;;;;;;7.00;4.45;;;3.30;79.00;;;;;;4991545;28;20026;-68
2022/01/06 08:49:51;;;;;;;7.30;5.13;;;3.30;79.10;;;;;;4994854;28;20065;-68
2022/01/06 08:52:16;;;;;;;9.95;5.45;;;3.40;79.10;;;;;;4995769;28;20458;-68
2022/01/06 08:54:42;;;;;;;8.50;5.50;;;3.40;79.10;;;;;;4997602;28;20038;-69
2022/01/06 08:57:08;;;;;;;7.38;5.18;;;3.40;79.10;;;;;;5001526;28;20707;-69
2022/01/06 08:59:33;;;;;;;7.47;4.50;;;3.40;79.10;;;;;;4993665;28;20524;-67
2022/01/06 09:01:59;;;;;;;7.03;4.32;;;3.40;79.00;;;;;;4985641;28;20038;-68
2022/01/06 09:04:25;;;;;;;8.63;5.35;;;3.50;79.00;;;;;;4996827;28;20096;-68
2022/01/06 09:06:51;;;;;;;6.05;4.18;;;3.50;78.90;;;;;;4999511;28;20042;-68
2022/01/06 09:09:18;;;;;;;8.13;4.63;;;3.50;78.80;;;;;;4997895;28;20137;-68
2022/01/06 09:11:44;;;;;;;6.97;4.38;;;3.50;78.80;;;;;;4993025;28;20057;-68
2022/01/06 09:14:10;;;;;;;9.32;4.20;;;3.60;78.80;;;;;;4996041;28;20502;-69
2022/01/06 09:16:38;;;;;;;7.63;4.40;;;3.50;78.60;;;;;;5002396;28;20037;-68
2022/01/06 09:19:04;;;;;;;7.93;4.63;;;3.60;78.60;;;;;;4999897;28;20521;-69
2022/01/06 09:21:29;;;;;;;8.07;6.15;;;3.60;78.60;;;;;;4999835;28;20058;-69
2022/01/06 09:23:57;;;;;;;8.93;4.45;;;3.60;78.80;;;;;;5000065;28;20126;-68
2022/01/06 09:26:23;;;;;;;8.20;4.38;;;3.50;78.80;;;;;;4997277;28;20088;-69
2022/01/06 09:28:48;;;;;;;7.38;4.50;;;3.60;78.90;;;;;;4999387;28;20041;-69
2022/01/06 09:31:14;;;;;;;9.25;5.93;;;3.60;79.00;;;;;;4996846;28;20501;-69
2022/01/06 09:33:40;;;;;;;5.72;4.10;;;3.60;79.20;;;;;;5002850;28;20524;-68
2022/01/06 09:36:06;;;;;;;5.65;3.80;;;3.60;79.20;;;;;;5002196;28;20033;-69
2022/01/06 09:38:31;;;;;;;6.40;4.30;;;3.70;79.20;;;;;;5004352;28;20046;-69
2022/01/06 09:41:03;;;;;;;8.73;4.00;;;3.70;79.10;;;;;;5002640;28;20054;-70
2022/01/06 09:43:30;;;;;;;6.55;3.97;;;3.70;79.70;;;;;;5006567;28;20056;-70
2022/01/06 09:46:01;;;;;;;7.00;4.60;;;3.80;78.70;;;;;;5003397;28;20038;-69
2022/01/06 09:48:30;;;;;;;9.40;4.55;;;3.80;78.60;;;;;;5006915;28;20451;-69
2022/01/06 09:50:56;;;;;;;12.60;5.80;;;3.80;78.60;;;;;;5002197;28;20121;-69
2022/01/06 09:53:23;;;;;;;6.80;4.10;;;3.80;78.60;;;;;;5003885;28;20033;-70
2022/01/06 09:55:49;;;;;;;22.83;8.15;;;3.80;78.60;;;;;;5000437;28;20041;-70
2022/01/06 09:58:22;;;;;;;10.27;5.93;;;3.80;79.40;;;;;;5002568;28;20096;-70
2022/01/06 10:00:48;;;;;;;6.93;4.68;;;3.80;78.60;;;;;;5003958;28;20067;-69
2022/01/06 10:03:13;;;;;;;5.68;4.25;;;3.80;78.60;;;;;;5001833;28;20570;-70
2022/01/06 10:05:45;;;;;;;5.82;3.80;;;3.80;78.50;;;;;;5002344;28;20034;-70
2022/01/06 10:08:11;;;;;;;5.55;3.53;;;3.90;78.70;;;;;;4999524;28;20035;-70
2022/01/06 10:10:40;;;;;;;6.45;4.13;;;3.90;78.60;;;;;;4997810;28;20042;-69
2022/01/06 10:13:08;;;;;;;10.57;6.63;;;3.90;78.60;;;;;;5006375;28;20052;-69
2022/01/06 10:15:37;;;;;;;7.57;4.90;;;3.90;78.60;;;;;;5006147;28;20141;-69
2022/01/06 10:18:16;;;;;;;7.80;4.20;;;3.90;78.70;;;;;;5006493;28;20025;-69
2022/01/06 10:20:43;;;;;;;12.48;8.13;;;4.00;78.90;;;;;;5005143;28;20409;-70
2022/01/06 10:23:14;;;;;;;8.73;5.90;;;4.00;78.80;;;;;;5007594;28;20046;-69
2022/01/06 10:25:48;;;;;;;11.10;6.88;;;4.00;78.90;;;;;;5004643;28;20031;-69
2022/01/06 10:28:18;;;;;;;;;;;4.10;78.80;;;;;;5004428;28;20026;-69
2022/01/06 10:30:48;;;;;;;9.43;4.88;;;4.10;79.00;;;;;;5004909;28;19918;-69
2022/01/06 10:33:33;;;;;;;11.82;5.80;;;4.20;79.30;;;;;;5003480;28;20038;-69
2022/01/06 10:36:08;;;;;;;12.02;5.50;;;4.20;78.80;;;;;;5007179;28;20464;-69
2022/01/06 10:38:34;;;;;;;13.18;6.90;;;4.30;78.80;;;;;;5005393;28;20042;-69
2022/01/06 10:41:16;;;;;;;9.05;5.75;;;4.30;78.80;;;;;;5005088;28;20132;-69
2022/01/06 10:43:49;;;;;;;10.57;6.15;;;4.40;78.70;;;;;;5006403;28;20080;-69
2022/01/06 10:46:14;;;;;;;10.35;5.90;;;4.40;78.50;;;;;;5004613;28;20509;-69
2022/01/06 10:48:44;;;;;;;8.38;5.63;;;4.50;78.50;;;;;;5003827;28;20036;-69
2022/01/06 10:51:11;;;;;;;9.45;4.80;;;4.50;78.30;;;;;;5006629;28;20061;-70
2022/01/06 10:53:48;;;;;;;7.38;4.32;;;4.40;78.00;;;;;;5001011;28;20044;-69
2022/01/06 10:56:18;;;;;;;6.72;4.60;;;4.50;78.00;;;;;;5005465;28;20034;-69
2022/01/06 10:58:47;;;;;;;5.85;4.40;;;4.50;78.00;;;;;;5005293;28;20041;-68
2022/01/06 11:01:16;;;;;;;6.75;4.32;;;4.50;78.10;;;;;;5006768;28;20120;-69
2022/01/06 11:03:42;;;;;;;6.45;4.20;;;4.50;78.20;;;;;;5005828;28;20034;-69
2022/01/06 11:06:10;;;;;;;6.65;3.88;;;4.50;78.30;;;;;;5007042;28;20053;-69
2022/01/06 11:08:39;;;;;;;5.40;3.92;;;4.50;78.50;;;;;;5005448;28;20108;-68
2022/01/06 11:13:33;;;;;;;5.50;3.72;;;4.60;78.60;;;;;;5007326;28;20520;-68
2022/01/06 11:15:59;;;;;;;7.90;4.20;;;4.60;78.50;;;;;;5007277;28;20037;-69
2022/01/06 11:18:26;;;;;;;7.03;4.25;;;4.60;78.30;;;;;;5006165;28;20128;-68
2022/01/06 11:21:00;;;;;;;10.32;3.90;;;4.70;78.30;;;;;;5006445;28;20069;-68
2022/01/06 11:23:26;;;;;;;6.53;4.55;;;4.70;78.20;;;;;;5004852;28;20564;-69
2022/01/06 11:26:07;;;;;;;8.80;4.50;;;4.70;78.10;;;;;;5006284;28;20130;-68
2022/01/06 11:28:34;;;;;;;5.15;3.72;;;4.70;78.10;;;;;;5006465;28;20045;-68
2022/01/06 11:31:17;;;;;;;6.20;3.88;;;4.70;78.00;;;;;;5007135;28;20379;-68
2022/01/06 11:33:45;;;;;;;5.78;3.85;;;4.70;77.80;;;;;;5005480;28;20037;-68
2022/01/06 11:36:24;;;;;;;6.97;3.85;;;4.70;77.80;;;;;;5006321;28;20033;-68
2022/01/06 11:38:51;;;;;;;6.30;4.28;;;4.70;77.90;;;;;;5004952;28;20041;-68
2022/01/06 11:41:17;;;;;;;9.82;4.55;;;4.70;77.60;;;;;;5005143;28;20628;-68
2022/01/06 11:43:46;;;;;;;8.60;4.85;;;4.70;77.50;;;;;;5007131;28;20602;-68
2022/01/06 11:46:12;;;;;;;13.52;7.25;;;4.70;77.70;;;;;;5006790;28;20517;-68
2022/01/06 11:48:54;;;;;;;5.05;3.90;;;4.70;77.90;;;;;;5006731;28;20076;-68
2022/01/06 11:51:29;;;;;;;6.35;5.10;;;4.70;77.70;;;;;;5006058;28;20133;-69
2022/01/06 11:53:56;;;;;;;11.50;6.68;;;4.70;77.80;;;;;;5007106;28;20531;-68
2022/01/06 11:56:23;;;;;;;11.50;5.72;;;4.80;77.80;;;;;;5006615;28;20034;-68
2022/01/06 11:59:04;;;;;;;11.82;6.90;;;4.80;77.90;;;;;;5007233;28;20457;-68
2022/01/06 12:01:46;;;;;;;13.10;7.10;;;4.90;78.40;;;;;;5006105;28;20031;-68
2022/01/06 12:04:19;;;;;;;13.48;7.68;;;4.90;78.40;;;;;;4999221;28;20382;-68
2022/01/06 12:06:45;;;;;;;6.82;4.43;;;5.00;78.40;;;;;;5006616;28;20049;-68
2022/01/06 12:09:19;;;;;;;10.32;5.13;;;5.10;78.30;;;;;;5006327;28;20115;-69
2022/01/06 12:11:46;;;;;;;7.80;4.40;;;5.10;78.30;;;;;;5001086;28;20095;-69
2022/01/06 12:14:23;;;;;;;10.57;6.07;;;5.20;78.50;;;;;;5005226;28;20136;-69
2022/01/06 12:16:49;;;;;;;8.70;3.70;;;5.30;78.80;;;;;;5006306;28;20045;-68
2022/01/06 12:19:17;;;;;;;10.18;4.63;;;5.40;77.80;;;;;;5019580;28;20026;-68
2022/01/06 12:21:43;;;;;;;12.60;5.47;;;5.50;77.10;;;;;;5003809;28;20638;-68
2022/01/06 12:24:10;;;;;;;6.78;3.55;;;5.50;77.10;;;;;;5004740;28;20034;-68
2022/01/06 12:26:37;;;;;;;7.82;3.40;;;5.60;77.00;;;;;;5004582;28;20405;-68
2022/01/06 12:29:06;;;;;;;9.95;3.70;;;5.60;76.90;;;;;;5003748;28;20060;-68
2022/01/06 12:31:32;;;;;;;11.20;4.85;;;5.70;76.40;;;;;;5004867;28;20107;-68
2022/01/06 12:34:02;;;;;;;13.75;5.45;;;5.70;75.70;;;;;;5004880;28;20057;-68
2022/01/06 12:36:30;;;;;;;7.88;4.55;;;5.70;75.80;;;;;;4996236;28;20037;-68
2022/01/06 12:38:56;;;;;;;8.35;4.18;;;5.80;75.50;;;;;;5003954;28;20116;-68
2022/01/06 12:41:34;;;;;;;6.93;4.40;;;5.80;75.30;;;;;;5003720;28;20572;-68
2022/01/06 12:43:59;;;;;;;38.40;17.45;;;5.80;74.70;;;;;;5004470;28;20111;-68
2022/01/06 12:46:37;;;;;;;30.30;13.40;;;5.80;74.80;;;;;;5002998;28;20512;-68
2022/01/06 12:49:07;;;;;;;16.15;7.38;;;5.80;74.20;;;;;;5005297;28;20116;-68
2022/01/06 12:51:34;;;;;;;5.20;4.07;;;5.80;74.40;;;;;;5004440;28;20049;-68
2022/01/06 12:54:10;;;;;;;7.75;4.00;;;5.70;74.30;;;;;;5003358;28;20457;-69
2022/01/06 12:56:39;;;;;;;4.40;3.00;;;5.70;74.50;;;;;;5004843;28;20502;-68
2022/01/06 12:59:12;;;;;;;5.85;3.70;;;5.70;74.40;;;;;;5003299;28;20043;-69
2022/01/06 13:01:39;;;;;;;6.53;4.50;;;5.70;74.30;;;;;;5021919;28;20058;-68
2022/01/06 13:04:09;;;;;;;8.02;3.85;;;5.70;74.70;;;;;;5004889;28;20599;-68
2022/01/06 13:06:36;;;;;;;6.93;4.07;;;5.70;74.60;;;;;;5008893;28;20088;-68
2022/01/06 13:09:17;;;;;;;8.13;4.60;;;5.70;75.30;;;;;;5006927;28;20049;-68
2022/01/06 13:11:55;;;;;;;5.97;3.90;;;5.70;74.50;;;;;;4998808;28;20097;-68